createdAt,value
2023-01-28T00:03:42.121Z,6.17
2023-01-28T00:08:43.632Z,6.26
2023-01-28T00:13:45.170Z,6.20
2023-01-28T00:18:46.656Z,6.19
2023-01-28T00:23:52.530Z,5.58
2023-01-28T00:28:54.104Z,5.91
2023-01-28T00:33:56.929Z,5.97
2023-01-28T00:38:59.366Z,6.00
2023-01-28T00:44:00.975Z,5.97
2023-01-28T00:49:04.225Z,6.09
2023-01-28T00:54:05.996Z,6.12
2023-01-28T00:59:08.282Z,5.99
2023-01-28T01:04:09.754Z,6.08
2023-01-28T01:09:11.778Z,5.93
2023-01-28T01:14:15.231Z,5.98
2023-01-28T01:19:16.746Z,6.04
2023-01-28T01:24:18.345Z,5.96
2023-01-28T01:29:19.831Z,5.86
2023-01-28T01:34:21.499Z,5.95
2023-01-28T01:39:23.797Z,5.93
2023-01-28T01:44:59.554Z,5.89
2023-01-28T01:50:21.932Z,5.76
2023-01-28T01:55:26.868Z,5.68
2023-01-28T02:00:28.757Z,5.62
2023-01-28T02:05:30.287Z,5.76
2023-01-28T02:10:32.036Z,5.66
2023-01-28T02:15:34.192Z,5.70
2023-01-28T02:20:37.390Z,5.73
2023-01-28T02:25:51.893Z,5.71
2023-01-28T02:31:16.470Z,5.67
2023-01-28T02:36:36.130Z,5.69
2023-01-28T02:41:53.049Z,5.33
2023-01-28T02:46:55.072Z,5.59
2023-01-28T02:52:29.980Z,5.68
2023-01-28T02:57:42.409Z,5.70
2023-01-28T03:02:53.791Z,5.70
2023-01-28T03:07:55.818Z,5.78
2023-01-28T03:12:59.110Z,5.81
2023-01-28T03:18:00.579Z,5.69
2023-01-28T03:23:08.782Z,5.74
2023-01-28T03:28:15.670Z,5.80
2023-01-28T03:33:19.092Z,5.79
2023-01-28T03:38:21.164Z,5.75
2023-01-28T03:43:24.093Z,5.74
2023-01-28T03:48:27.773Z,5.83
2023-01-28T03:53:29.409Z,5.80
2023-01-28T03:58:32.987Z,5.77
2023-01-28T04:03:35.658Z,5.85
2023-01-28T04:08:40.934Z,5.85
2023-01-28T04:13:58.380Z,5.82
2023-01-28T04:19:02.334Z,5.84
2023-01-28T04:24:05.277Z,5.86
2023-01-28T04:29:07.779Z,5.89
2023-01-28T04:34:11.217Z,5.82
2023-01-28T04:39:33.000Z,5.85
2023-01-28T04:44:44.430Z,5.85
2023-01-28T04:50:12.174Z,5.85
2023-01-28T04:55:31.951Z,5.84
2023-01-28T05:00:34.971Z,5.84
2023-01-28T05:05:36.950Z,5.87
2023-01-28T05:10:52.512Z,5.77
2023-01-28T05:15:54.199Z,5.92
2023-01-28T05:20:56.215Z,6.05
2023-01-28T05:25:58.191Z,6.12
2023-01-28T05:31:04.212Z,5.92
2023-01-28T05:36:06.048Z,6.15
2023-01-28T05:41:07.655Z,6.27
2023-01-28T05:46:10.498Z,6.43
2023-01-28T05:51:30.434Z,6.45
2023-01-28T05:56:33.643Z,6.46
2023-01-28T06:01:36.617Z,6.32
2023-01-28T06:06:38.220Z,6.24
2023-01-28T06:11:40.782Z,6.22
2023-01-28T06:16:42.365Z,6.25
2023-01-28T06:21:58.753Z,6.45
2023-01-28T06:27:00.336Z,6.37
2023-01-28T06:32:01.808Z,6.45
2023-01-28T06:37:03.337Z,6.47
2023-01-28T06:42:05.029Z,6.45
2023-01-28T06:47:06.536Z,6.47
2023-01-28T06:52:08.079Z,6.23
2023-01-28T06:57:09.598Z,6.21
2023-01-28T07:02:11.735Z,6.24
2023-01-28T07:07:13.194Z,6.28
2023-01-28T07:12:14.609Z,6.26
2023-01-28T07:17:16.112Z,6.35
2023-01-28T07:22:17.601Z,6.27
2023-01-28T07:27:19.027Z,6.23
2023-01-28T07:32:20.488Z,6.19
2023-01-28T07:37:22.024Z,6.28
2023-01-28T07:42:23.565Z,6.30
2023-01-28T07:47:27.301Z,6.23
2023-01-28T07:52:28.830Z,6.27
2023-01-28T07:57:30.271Z,6.32
2023-01-28T08:02:32.121Z,6.31
2023-01-28T08:07:33.582Z,6.39
2023-01-28T08:12:35.002Z,6.36
2023-01-28T08:17:36.430Z,6.43
2023-01-28T08:22:37.951Z,6.37
2023-01-28T08:27:39.569Z,6.59
2023-01-28T08:32:41.044Z,6.44
2023-01-28T08:37:42.598Z,6.62
2023-01-28T08:42:52.392Z,6.61
2023-01-28T08:47:53.767Z,6.58
2023-01-28T08:53:04.529Z,6.41
2023-01-28T08:58:09.755Z,6.43
2023-01-28T09:03:11.428Z,6.41
2023-01-28T09:08:14.785Z,6.48
2023-01-28T09:13:16.295Z,6.32
2023-01-28T09:18:18.516Z,6.43
2023-01-28T09:23:19.968Z,6.15
2023-01-28T09:28:21.461Z,6.51
2023-01-28T09:33:22.910Z,6.49
2023-01-28T09:38:24.355Z,6.58
2023-01-28T09:43:37.696Z,6.58
2023-01-28T09:48:44.543Z,6.47
2023-01-28T09:53:51.169Z,6.38
2023-01-28T09:58:52.671Z,6.62
2023-01-28T10:04:09.644Z,6.77
2023-01-28T10:09:31.649Z,6.51
2023-01-28T10:14:42.791Z,6.53
2023-01-28T10:19:56.464Z,6.73
2023-01-28T10:25:02.480Z,6.82
2023-01-28T10:30:31.868Z,6.96
2023-01-28T10:35:39.633Z,7.01
2023-01-28T10:40:42.503Z,6.95
2023-01-28T10:46:03.075Z,7.05
2023-01-28T10:51:05.594Z,7.00
2023-01-28T10:56:23.564Z,6.98
2023-01-28T11:01:25.733Z,6.99
2023-01-28T11:06:29.215Z,6.93
2023-01-28T11:11:30.750Z,6.97
2023-01-28T11:16:32.484Z,6.94
2023-01-28T11:21:35.354Z,7.00
2023-01-28T11:26:39.669Z,7.11
2023-01-28T11:31:44.137Z,7.20
2023-01-28T11:36:54.401Z,7.08
2023-01-28T11:42:11.926Z,7.04
2023-01-28T11:47:29.901Z,7.13
2023-01-28T11:53:07.097Z,7.13
2023-01-28T11:58:21.256Z,7.00
2023-01-28T12:03:39.102Z,7.06
2023-01-28T12:08:45.662Z,7.00
2023-01-28T12:13:52.203Z,7.10
2023-01-28T12:19:11.967Z,7.13
2023-01-28T12:24:40.882Z,7.27
2023-01-28T12:29:49.369Z,7.12
2023-01-28T12:35:01.697Z,7.22
2023-01-28T12:40:24.322Z,6.78
2023-01-28T12:45:43.561Z,6.81
2023-01-28T12:50:51.161Z,6.64
2023-01-28T12:56:20.583Z,6.82
2023-01-28T13:01:29.913Z,6.80
2023-01-28T13:06:41.500Z,7.02
2023-01-28T13:11:43.610Z,7.00
2023-01-28T13:16:45.167Z,7.08
2023-01-28T13:21:49.614Z,6.88
2023-01-28T13:26:57.953Z,7.00
2023-01-28T13:32:02.254Z,6.90
2023-01-28T13:37:17.497Z,6.96
2023-01-28T13:42:26.252Z,6.97
2023-01-28T13:47:33.487Z,6.88
2023-01-28T13:52:49.118Z,6.98
2023-01-28T13:58:17.086Z,7.06
2023-01-28T14:03:46.032Z,6.95
2023-01-28T14:09:08.666Z,6.79
2023-01-28T14:14:47.867Z,6.71
2023-01-28T14:19:52.714Z,6.81
2023-01-28T14:24:55.897Z,6.98
2023-01-28T14:30:13.969Z,7.02
2023-01-28T14:35:30.433Z,7.09
2023-01-28T14:40:33.789Z,7.21
2023-01-28T14:45:56.509Z,7.15
2023-01-28T14:50:57.920Z,7.10
2023-01-28T14:56:23.330Z,7.21
2023-01-28T15:01:30.424Z,7.02
2023-01-28T15:06:35.832Z,6.96
2023-01-28T15:11:40.298Z,6.99
2023-01-28T15:16:48.051Z,6.80
2023-01-28T15:21:49.633Z,6.97
2023-01-28T15:26:51.439Z,6.89
2023-01-28T15:31:53.152Z,6.95
2023-01-28T15:36:54.769Z,7.21
2023-01-28T15:42:03.394Z,7.28
2023-01-28T15:47:15.890Z,6.97
2023-01-28T15:52:17.588Z,6.96
2023-01-28T15:57:27.218Z,6.84
2023-01-28T16:02:31.773Z,6.72
2023-01-28T16:07:33.877Z,6.74
2023-01-28T16:12:35.540Z,6.79
2023-01-28T16:17:47.236Z,6.71
2023-01-28T16:22:49.030Z,6.68
2023-01-28T16:27:50.587Z,6.71
2023-01-28T16:32:52.610Z,6.67
2023-01-28T16:37:54.082Z,6.79
2023-01-28T16:42:55.525Z,6.78
2023-01-28T16:47:57.036Z,6.91
2023-01-28T16:52:59.367Z,6.86
2023-01-28T16:58:00.922Z,6.83
2023-01-28T17:03:02.548Z,6.88
2023-01-28T17:08:04.255Z,6.91
2023-01-28T17:13:05.717Z,6.97
2023-01-28T17:18:10.189Z,6.83
2023-01-28T17:23:15.582Z,6.81
2023-01-28T17:28:17.169Z,6.73
2023-01-28T17:33:18.728Z,6.74
2023-01-28T17:38:20.262Z,6.80
2023-01-28T17:43:21.702Z,6.83
2023-01-28T17:48:23.778Z,6.95
2023-01-28T17:53:25.308Z,6.86
2023-01-28T17:58:26.759Z,6.96
2023-01-28T18:03:28.254Z,6.90
2023-01-28T18:08:29.750Z,6.92
2023-01-28T18:13:31.735Z,6.88
2023-01-28T18:18:34.016Z,6.88
2023-01-28T18:23:35.521Z,6.86
2023-01-28T18:28:37.041Z,6.94
2023-01-28T18:33:38.501Z,6.89
2023-01-28T18:38:40.021Z,6.87
2023-01-28T18:43:42.306Z,6.87
2023-01-28T18:48:44.140Z,6.88
2023-01-28T18:53:45.592Z,6.92
2023-01-28T18:58:47.094Z,6.82
2023-01-28T19:03:48.650Z,6.79
2023-01-28T19:08:55.090Z,6.83
2023-01-28T19:13:56.618Z,6.93
2023-01-28T19:19:00.409Z,7.00
2023-01-28T19:24:04.838Z,6.80
2023-01-28T19:29:08.214Z,6.79
2023-01-28T19:34:10.253Z,6.75
2023-01-28T19:39:12.592Z,6.82
2023-01-28T19:44:14.146Z,6.87
2023-01-28T19:49:15.652Z,6.85
2023-01-28T19:54:17.197Z,6.72
2023-01-28T19:59:18.751Z,6.72
2023-01-28T20:04:20.269Z,6.72
2023-01-28T20:09:21.909Z,6.67
2023-01-28T20:14:23.507Z,6.68
2023-01-28T20:19:24.963Z,6.74
2023-01-28T20:24:26.430Z,6.67
2023-01-28T20:29:27.908Z,6.66
2023-01-28T20:34:29.429Z,6.67
2023-01-28T20:39:30.878Z,6.75
2023-01-28T20:44:32.320Z,6.75
2023-01-28T20:49:33.790Z,6.72
2023-01-28T20:54:35.226Z,6.71
2023-01-28T20:59:36.754Z,6.68
2023-01-28T21:04:38.199Z,6.54
2023-01-28T21:09:40.085Z,6.45
2023-01-28T21:14:41.546Z,6.45
2023-01-28T21:19:43.098Z,6.32
2023-01-28T21:24:44.602Z,6.37
2023-01-28T21:29:46.037Z,6.32
2023-01-28T21:34:47.529Z,6.07
2023-01-28T21:39:49.078Z,6.02
2023-01-28T21:44:50.580Z,6.01
2023-01-28T21:49:52.039Z,6.01
2023-01-28T21:54:53.479Z,5.98
2023-01-28T21:59:55.016Z,5.90
2023-01-28T22:04:56.466Z,5.87
2023-01-28T22:09:58.015Z,5.89
2023-01-28T22:14:59.520Z,5.90
2023-01-28T22:20:01.030Z,6.00
2023-01-28T22:25:02.522Z,6.20
2023-01-28T22:30:04.399Z,6.19
2023-01-28T22:35:05.997Z,6.19
2023-01-28T22:40:08.047Z,6.19
2023-01-28T22:45:10.189Z,6.24
2023-01-28T22:50:12.178Z,6.28
2023-01-28T22:55:13.885Z,6.20
2023-01-28T23:00:16.610Z,6.13
2023-01-28T23:05:18.361Z,6.23
2023-01-28T23:10:19.913Z,6.21
2023-01-28T23:15:21.384Z,6.25
2023-01-28T23:20:22.927Z,6.28
2023-01-28T23:25:24.431Z,6.31
2023-01-28T23:30:25.967Z,6.27
2023-01-28T23:35:28.062Z,6.25
2023-01-28T23:40:30.640Z,6.29
2023-01-28T23:45:32.167Z,6.30
2023-01-28T23:50:33.683Z,6.31
2023-01-28T23:55:37.994Z,6.30
